Rosenort Airport

CKJ2 · 曼尼托巴, 加拿大

使用的METAR站距离机场28 NM。
罗盘
风向 的 风向 190° Rosenort Airport 17/35
风: 13 kt, 4 beaufort

13 kt

2 kt
改变
0 ft 5.000 10.000 15.000 20.000
Cloud Cloud Cloud Cloud Cloud Cloud
BKN 11.000
Cloud Cloud Cloud Cloud Cloud Cloud Cloud Cloud
OVC 13.000
METAR CYWG 221300Z 19013KT 15SM BKN110 OVC130 07/M02 A2952 RMK AC7AC1 SLP004

METAR Rosenort Airport - CKJ2

Rosenort Airport是,加拿大中的小机场。 该机场位于纬度49,45370和经度-97,42250。 该机场有一条跑道: 17/35. 该机场的伪ICAO代码为CKJ2。 机场在Winnipeg FIR中。

该航空气象观测是针对Winnipeg / James Armstrong Richardson International Airport在2024年4月22日 08:00, 当地时间进行的。

机场观察

风向为190°,速度为13 kt。

可见度为15 mi。

有碎云在11.000 ft的高度 和 乌云密布在13.000 ft的高度。 破损或更高的上限为11.000 ft。

温度为7 °C,阵风为2 °C。 露点为-2 °C,相对湿度为53%。 海平面上的气压为29,52 inHg (QNH)。

白天

今天,太阳从06:22升起,在20:33降落。 这适用于Rosenort Airport,世界夏令时可能有所不同。 当地时间与世界标准时间之间的时差为-5 小时。 夏令时目前正在进行中。

公司介绍

我们没有关于这个机场的公司信息。

体会

到Vliegles.nl去找飞行课程,跳伞和其他飞行体验。 浏览页面,了解Rosenort Airport附近所有可用的活动。 你也可以使用搜索功能来寻找你所在地附近的特定飞行课程、跳伞或其他飞行体验。

跑道

Id 标题 侧风 逆风 侧风 %
17/35 180°-360° 2 kt 13 kt 17 %

逆风成分最大的方向会被突出显示,并用于横风计算。 这并不一定意味着这个方向在使用。

乌云

11.000 ft BKN 碎云
13.000 ft OVC 乌云密布

温度 & 天气

温度 7 °C
露点 -2 °C
相对湿度 53%
风寒 2 °C
Kp-index 1 (0-9)

评论

SLP004海平面压力为29,54 inHg (29,54 inHg)
AC7AC1

白天

日出
06:20
中午
13:27
日落
20:34 (11:36)

小工具

你想在你的网站上有一个关于Rosenort Airport的当前航空天气(METAR)的小部件吗?

显示HTML代码
报告变更